sensor_id;sensor_type;location;lat;lon;timestamp;P1;durP1;ratioP1;P2;durP2;ratioP2
25717;SDS011;13574;52.040;5.692;2023-07-20T00:01:21;9.50;;;6.93;;
25717;SDS011;13574;52.040;5.692;2023-07-20T00:03:47;12.30;;;6.90;;
25717;SDS011;13574;52.040;5.692;2023-07-20T00:06:20;11.75;;;7.35;;
25717;SDS011;13574;52.040;5.692;2023-07-20T00:08:46;11.95;;;6.70;;
25717;SDS011;13574;52.040;5.692;2023-07-20T00:11:11;12.85;;;7.30;;
25717;SDS011;13574;52.040;5.692;2023-07-20T00:13:38;10.68;;;6.88;;
25717;SDS011;13574;52.040;5.692;2023-07-20T00:16:04;12.05;;;7.40;;
25717;SDS011;13574;52.040;5.692;2023-07-20T00:18:30;8.32;;;6.32;;
25717;SDS011;13574;52.040;5.692;2023-07-20T00:20:56;11.23;;;6.22;;
25717;SDS011;13574;52.040;5.692;2023-07-20T00:23:21;7.68;;;5.70;;
25717;SDS011;13574;52.040;5.692;2023-07-20T00:25:48;9.77;;;6.03;;
25717;SDS011;13574;52.040;5.692;2023-07-20T00:28:14;8.75;;;6.20;;
25717;SDS011;13574;52.040;5.692;2023-07-20T00:30:39;8.40;;;5.82;;
25717;SDS011;13574;52.040;5.692;2023-07-20T00:33:10;10.07;;;6.47;;
25717;SDS011;13574;52.040;5.692;2023-07-20T00:35:37;8.25;;;5.85;;
25717;SDS011;13574;52.040;5.692;2023-07-20T00:38:03;7.38;;;5.90;;
25717;SDS011;13574;52.040;5.692;2023-07-20T00:40:35;8.98;;;6.07;;
25717;SDS011;13574;52.040;5.692;2023-07-20T00:43:04;8.15;;;5.50;;
25717;SDS011;13574;52.040;5.692;2023-07-20T00:45:31;7.63;;;5.68;;
25717;SDS011;13574;52.040;5.692;2023-07-20T00:47:57;8.43;;;4.90;;
25717;SDS011;13574;52.040;5.692;2023-07-20T00:50:24;8.88;;;5.88;;
25717;SDS011;13574;52.040;5.692;2023-07-20T00:52:50;7.80;;;6.03;;
25717;SDS011;13574;52.040;5.692;2023-07-20T00:55:17;7.57;;;5.35;;
25717;SDS011;13574;52.040;5.692;2023-07-20T00:57:44;7.60;;;5.05;;
25717;SDS011;13574;52.040;5.692;2023-07-20T01:00:09;6.35;;;4.63;;
25717;SDS011;13574;52.040;5.692;2023-07-20T01:02:35;6.30;;;5.10;;
25717;SDS011;13574;52.040;5.692;2023-07-20T01:05:02;8.98;;;4.82;;
25717;SDS011;13574;52.040;5.692;2023-07-20T01:08:15;6.97;;;5.50;;
25717;SDS011;13574;52.040;5.692;2023-07-20T01:10:33;7.18;;;4.80;;
25717;SDS011;13574;52.040;5.692;2023-07-20T01:13:06;7.70;;;4.78;;
25717;SDS011;13574;52.040;5.692;2023-07-20T01:15:34;6.03;;;4.95;;
25717;SDS011;13574;52.040;5.692;2023-07-20T01:18:00;7.07;;;4.85;;
25717;SDS011;13574;52.040;5.692;2023-07-20T01:20:30;5.97;;;5.03;;
25717;SDS011;13574;52.040;5.692;2023-07-20T01:31:15;5.93;;;4.60;;
25717;SDS011;13574;52.040;5.692;2023-07-20T01:33:47;6.25;;;4.28;;
25717;SDS011;13574;52.040;5.692;2023-07-20T01:36:13;6.15;;;4.30;;
25717;SDS011;13574;52.040;5.692;2023-07-20T01:38:41;5.40;;;4.00;;
25717;SDS011;13574;52.040;5.692;2023-07-20T01:41:07;5.43;;;3.90;;
25717;SDS011;13574;52.040;5.692;2023-07-20T01:43:34;5.22;;;4.10;;
25717;SDS011;13574;52.040;5.692;2023-07-20T01:45:59;5.38;;;3.72;;
25717;SDS011;13574;52.040;5.692;2023-07-20T01:48:25;5.70;;;4.07;;
25717;SDS011;13574;52.040;5.692;2023-07-20T01:50:51;5.13;;;3.72;;
25717;SDS011;13574;52.040;5.692;2023-07-20T01:53:17;5.47;;;4.13;;
25717;SDS011;13574;52.040;5.692;2023-07-20T01:55:43;4.35;;;3.58;;
25717;SDS011;13574;52.040;5.692;2023-07-20T01:58:08;5.30;;;3.70;;
25717;SDS011;13574;52.040;5.692;2023-07-20T02:00:34;4.85;;;3.78;;
25717;SDS011;13574;52.040;5.692;2023-07-20T02:03:02;5.70;;;3.80;;
25717;SDS011;13574;52.040;5.692;2023-07-20T02:05:27;4.90;;;3.60;;
25717;SDS011;13574;52.040;5.692;2023-07-20T02:07:53;4.35;;;3.45;;
25717;SDS011;13574;52.040;5.692;2023-07-20T02:10:19;6.35;;;3.50;;
25717;SDS011;13574;52.040;5.692;2023-07-20T02:12:45;5.32;;;3.67;;
25717;SDS011;13574;52.040;5.692;2023-07-20T02:15:11;5.32;;;3.70;;
25717;SDS011;13574;52.040;5.692;2023-07-20T02:17:38;4.65;;;3.42;;
25717;SDS011;13574;52.040;5.692;2023-07-20T02:20:06;5.07;;;3.47;;
25717;SDS011;13574;52.040;5.692;2023-07-20T02:22:35;4.03;;;3.03;;
25717;SDS011;13574;52.040;5.692;2023-07-20T02:25:01;4.50;;;3.75;;
25717;SDS011;13574;52.040;5.692;2023-07-20T02:27:27;4.40;;;3.70;;
25717;SDS011;13574;52.040;5.692;2023-07-20T02:29:52;4.93;;;3.90;;
25717;SDS011;13574;52.040;5.692;2023-07-20T02:32:18;4.57;;;3.33;;
25717;SDS011;13574;52.040;5.692;2023-07-20T02:34:43;4.60;;;3.15;;
25717;SDS011;13574;52.040;5.692;2023-07-20T02:37:09;5.63;;;3.63;;
25717;SDS011;13574;52.040;5.692;2023-07-20T02:39:38;5.80;;;3.92;;
25717;SDS011;13574;52.040;5.692;2023-07-20T02:42:04;4.70;;;3.30;;
25717;SDS011;13574;52.040;5.692;2023-07-20T02:44:30;5.30;;;3.97;;
25717;SDS011;13574;52.040;5.692;2023-07-20T02:46:55;4.05;;;3.30;;
25717;SDS011;13574;52.040;5.692;2023-07-20T02:49:21;4.35;;;3.70;;
25717;SDS011;13574;52.040;5.692;2023-07-20T02:51:46;5.70;;;3.20;;
25717;SDS011;13574;52.040;5.692;2023-07-20T02:54:12;4.85;;;3.83;;
25717;SDS011;13574;52.040;5.692;2023-07-20T02:56:38;3.95;;;3.03;;
25717;SDS011;13574;52.040;5.692;2023-07-20T02:59:03;3.85;;;3.08;;
25717;SDS011;13574;52.040;5.692;2023-07-20T03:01:29;5.45;;;3.67;;
25717;SDS011;13574;52.040;5.692;2023-07-20T03:03:55;3.78;;;3.15;;
25717;SDS011;13574;52.040;5.692;2023-07-20T03:06:21;4.97;;;3.30;;
25717;SDS011;13574;52.040;5.692;2023-07-20T03:08:47;4.68;;;3.40;;
25717;SDS011;13574;52.040;5.692;2023-07-20T03:11:16;4.57;;;3.75;;
25717;SDS011;13574;52.040;5.692;2023-07-20T03:13:43;6.22;;;4.10;;
25717;SDS011;13574;52.040;5.692;2023-07-20T03:16:13;4.60;;;3.28;;
25717;SDS011;13574;52.040;5.692;2023-07-20T03:18:43;4.32;;;3.40;;
25717;SDS011;13574;52.040;5.692;2023-07-20T03:21:09;5.35;;;3.65;;
25717;SDS011;13574;52.040;5.692;2023-07-20T03:23:41;4.72;;;3.80;;
25717;SDS011;13574;52.040;5.692;2023-07-20T03:26:08;5.40;;;3.30;;
25717;SDS011;13574;52.040;5.692;2023-07-20T03:28:34;6.20;;;3.80;;
25717;SDS011;13574;52.040;5.692;2023-07-20T03:31:00;6.95;;;4.20;;
25717;SDS011;13574;52.040;5.692;2023-07-20T03:33:27;5.10;;;4.07;;
25717;SDS011;13574;52.040;5.692;2023-07-20T03:35:54;5.63;;;4.03;;
25717;SDS011;13574;52.040;5.692;2023-07-20T03:38:24;4.78;;;3.45;;
25717;SDS011;13574;52.040;5.692;2023-07-20T03:40:54;5.82;;;3.97;;
25717;SDS011;13574;52.040;5.692;2023-07-20T03:43:22;5.28;;;3.67;;
25717;SDS011;13574;52.040;5.692;2023-07-20T03:45:48;4.68;;;3.78;;
25717;SDS011;13574;52.040;5.692;2023-07-20T03:48:19;5.47;;;3.70;;
25717;SDS011;13574;52.040;5.692;2023-07-20T03:50:50;4.70;;;3.58;;
25717;SDS011;13574;52.040;5.692;2023-07-20T03:53:16;5.40;;;3.80;;
25717;SDS011;13574;52.040;5.692;2023-07-20T03:55:49;4.65;;;3.45;;
25717;SDS011;13574;52.040;5.692;2023-07-20T03:58:17;5.60;;;4.13;;
25717;SDS011;13574;52.040;5.692;2023-07-20T04:00:47;5.28;;;3.70;;
25717;SDS011;13574;52.040;5.692;2023-07-20T04:03:15;3.97;;;3.42;;
25717;SDS011;13574;52.040;5.692;2023-07-20T04:05:41;5.00;;;3.70;;
25717;SDS011;13574;52.040;5.692;2023-07-20T04:08:07;4.57;;;3.60;;
25717;SDS011;13574;52.040;5.692;2023-07-20T04:10:33;4.80;;;3.70;;
25717;SDS011;13574;52.040;5.692;2023-07-20T04:12:59;5.05;;;3.90;;
25717;SDS011;13574;52.040;5.692;2023-07-20T04:15:25;5.15;;;4.00;;
25717;SDS011;13574;52.040;5.692;2023-07-20T04:17:51;4.63;;;3.85;;
25717;SDS011;13574;52.040;5.692;2023-07-20T04:20:17;5.60;;;3.40;;
25717;SDS011;13574;52.040;5.692;2023-07-20T04:22:43;4.82;;;3.95;;
25717;SDS011;13574;52.040;5.692;2023-07-20T04:25:09;4.75;;;3.72;;
25717;SDS011;13574;52.040;5.692;2023-07-20T04:27:35;4.80;;;3.53;;
25717;SDS011;13574;52.040;5.692;2023-07-20T04:30:01;5.10;;;3.90;;
25717;SDS011;13574;52.040;5.692;2023-07-20T04:32:28;6.85;;;4.22;;
25717;SDS011;13574;52.040;5.692;2023-07-20T04:34:54;6.05;;;4.30;;
25717;SDS011;13574;52.040;5.692;2023-07-20T04:37:19;5.90;;;3.95;;
25717;SDS011;13574;52.040;5.692;2023-07-20T04:39:45;7.15;;;4.22;;
25717;SDS011;13574;52.040;5.692;2023-07-20T04:42:11;5.13;;;4.03;;
25717;SDS011;13574;52.040;5.692;2023-07-20T04:44:36;3.92;;;3.53;;
25717;SDS011;13574;52.040;5.692;2023-07-20T04:47:02;4.95;;;3.90;;
25717;SDS011;13574;52.040;5.692;2023-07-20T04:49:28;6.22;;;4.03;;
25717;SDS011;13574;52.040;5.692;2023-07-20T04:51:54;5.25;;;4.35;;
25717;SDS011;13574;52.040;5.692;2023-07-20T04:54:19;5.80;;;4.97;;
25717;SDS011;13574;52.040;5.692;2023-07-20T04:56:45;5.32;;;4.53;;
25717;SDS011;13574;52.040;5.692;2023-07-20T04:59:11;5.72;;;4.90;;
25717;SDS011;13574;52.040;5.692;2023-07-20T05:01:36;7.00;;;5.57;;
25717;SDS011;13574;52.040;5.692;2023-07-20T05:04:02;6.05;;;4.63;;
25717;SDS011;13574;52.040;5.692;2023-07-20T05:06:28;6.28;;;5.30;;
25717;SDS011;13574;52.040;5.692;2023-07-20T05:08:53;7.03;;;5.40;;
25717;SDS011;13574;52.040;5.692;2023-07-20T05:11:19;5.28;;;4.78;;
25717;SDS011;13574;52.040;5.692;2023-07-20T05:13:45;6.28;;;5.18;;
25717;SDS011;13574;52.040;5.692;2023-07-20T05:16:10;6.32;;;4.97;;
25717;SDS011;13574;52.040;5.692;2023-07-20T05:18:36;6.63;;;4.45;;
25717;SDS011;13574;52.040;5.692;2023-07-20T05:21:02;5.55;;;4.47;;
25717;SDS011;13574;52.040;5.692;2023-07-20T05:23:27;6.53;;;5.28;;
25717;SDS011;13574;52.040;5.692;2023-07-20T05:25:57;6.90;;;5.07;;
25717;SDS011;13574;52.040;5.692;2023-07-20T05:28:23;5.20;;;4.60;;
25717;SDS011;13574;52.040;5.692;2023-07-20T05:30:53;5.10;;;4.15;;
25717;SDS011;13574;52.040;5.692;2023-07-20T05:33:19;5.00;;;3.83;;
25717;SDS011;13574;52.040;5.692;2023-07-20T05:35:45;5.43;;;3.88;;
25717;SDS011;13574;52.040;5.692;2023-07-20T05:38:11;5.43;;;4.55;;
25717;SDS011;13574;52.040;5.692;2023-07-20T05:40:37;5.90;;;4.35;;
25717;SDS011;13574;52.040;5.692;2023-07-20T05:43:05;6.78;;;5.28;;
25717;SDS011;13574;52.040;5.692;2023-07-20T05:45:31;5.40;;;4.30;;
25717;SDS011;13574;52.040;5.692;2023-07-20T05:47:56;6.80;;;4.72;;
25717;SDS011;13574;52.040;5.692;2023-07-20T05:50:22;5.80;;;4.78;;
25717;SDS011;13574;52.040;5.692;2023-07-20T05:52:48;5.20;;;4.10;;
25717;SDS011;13574;52.040;5.692;2023-07-20T05:55:13;5.70;;;4.40;;
25717;SDS011;13574;52.040;5.692;2023-07-20T05:57:39;4.65;;;4.15;;
25717;SDS011;13574;52.040;5.692;2023-07-20T06:00:07;5.75;;;4.65;;
25717;SDS011;13574;52.040;5.692;2023-07-20T06:02:33;6.20;;;4.57;;
25717;SDS011;13574;52.040;5.692;2023-07-20T06:04:59;4.57;;;3.83;;
25717;SDS011;13574;52.040;5.692;2023-07-20T06:07:25;5.65;;;3.60;;
25717;SDS011;13574;52.040;5.692;2023-07-20T06:09:51;4.07;;;3.08;;
25717;SDS011;13574;52.040;5.692;2023-07-20T06:12:16;3.53;;;2.90;;
25717;SDS011;13574;52.040;5.692;2023-07-20T06:14:42;3.97;;;2.80;;
25717;SDS011;13574;52.040;5.692;2023-07-20T06:17:08;3.67;;;2.63;;
25717;SDS011;13574;52.040;5.692;2023-07-20T06:19:33;3.72;;;2.00;;
25717;SDS011;13574;52.040;5.692;2023-07-20T06:21:59;3.97;;;1.90;;
25717;SDS011;13574;52.040;5.692;2023-07-20T06:24:25;4.78;;;1.88;;
25717;SDS011;13574;52.040;5.692;2023-07-20T06:26:51;2.85;;;1.75;;
25717;SDS011;13574;52.040;5.692;2023-07-20T06:29:16;3.53;;;2.00;;
25717;SDS011;13574;52.040;5.692;2023-07-20T06:31:43;4.55;;;2.10;;
25717;SDS011;13574;52.040;5.692;2023-07-20T06:34:08;3.88;;;2.20;;
25717;SDS011;13574;52.040;5.692;2023-07-20T06:36:34;3.70;;;1.90;;
25717;SDS011;13574;52.040;5.692;2023-07-20T06:39:00;2.80;;;1.80;;
25717;SDS011;13574;52.040;5.692;2023-07-20T06:41:27;2.83;;;2.10;;
25717;SDS011;13574;52.040;5.692;2023-07-20T06:43:53;3.63;;;2.42;;
25717;SDS011;13574;52.040;5.692;2023-07-20T06:46:23;3.10;;;2.80;;
25717;SDS011;13574;52.040;5.692;2023-07-20T06:48:49;4.05;;;2.83;;
25717;SDS011;13574;52.040;5.692;2023-07-20T06:51:15;4.22;;;3.00;;
25717;SDS011;13574;52.040;5.692;2023-07-20T06:53:41;5.95;;;3.30;;
25717;SDS011;13574;52.040;5.692;2023-07-20T06:56:08;3.90;;;3.22;;
25717;SDS011;13574;52.040;5.692;2023-07-20T06:58:33;4.00;;;3.10;;
25717;SDS011;13574;52.040;5.692;2023-07-20T07:01:04;3.67;;;2.30;;
25717;SDS011;13574;52.040;5.692;2023-07-20T07:03:30;3.92;;;2.90;;
25717;SDS011;13574;52.040;5.692;2023-07-20T07:05:56;3.38;;;2.40;;
25717;SDS011;13574;52.040;5.692;2023-07-20T07:08:21;2.60;;;2.20;;
25717;SDS011;13574;52.040;5.692;2023-07-20T07:10:47;2.92;;;2.40;;
25717;SDS011;13574;52.040;5.692;2023-07-20T07:13:13;3.40;;;2.20;;
25717;SDS011;13574;52.040;5.692;2023-07-20T07:15:38;2.80;;;1.77;;
25717;SDS011;13574;52.040;5.692;2023-07-20T07:18:04;2.97;;;1.80;;
25717;SDS011;13574;52.040;5.692;2023-07-20T07:20:30;2.42;;;1.48;;
25717;SDS011;13574;52.040;5.692;2023-07-20T07:22:55;2.15;;;1.92;;
25717;SDS011;13574;52.040;5.692;2023-07-20T07:25:22;2.58;;;1.70;;
25717;SDS011;13574;52.040;5.692;2023-07-20T07:27:48;2.33;;;1.85;;
25717;SDS011;13574;52.040;5.692;2023-07-20T07:30:14;2.90;;;1.83;;
25717;SDS011;13574;52.040;5.692;2023-07-20T07:32:40;2.50;;;1.60;;
25717;SDS011;13574;52.040;5.692;2023-07-20T07:35:07;2.08;;;1.40;;
25717;SDS011;13574;52.040;5.692;2023-07-20T07:37:32;3.15;;;1.60;;
25717;SDS011;13574;52.040;5.692;2023-07-20T07:39:58;1.90;;;1.70;;
25717;SDS011;13574;52.040;5.692;2023-07-20T07:42:24;2.15;;;1.70;;
25717;SDS011;13574;52.040;5.692;2023-07-20T07:44:53;3.13;;;1.50;;
25717;SDS011;13574;52.040;5.692;2023-07-20T07:47:19;1.70;;;1.23;;
25717;SDS011;13574;52.040;5.692;2023-07-20T07:49:45;2.15;;;1.25;;
25717;SDS011;13574;52.040;5.692;2023-07-20T07:52:10;2.33;;;1.30;;
25717;SDS011;13574;52.040;5.692;2023-07-20T07:54:36;2.30;;;1.40;;
25717;SDS011;13574;52.040;5.692;2023-07-20T07:57:02;2.00;;;1.40;;
25717;SDS011;13574;52.040;5.692;2023-07-20T07:59:27;3.03;;;1.33;;
25717;SDS011;13574;52.040;5.692;2023-07-20T08:01:53;1.58;;;1.20;;
25717;SDS011;13574;52.040;5.692;2023-07-20T08:04:19;2.08;;;1.30;;
25717;SDS011;13574;52.040;5.692;2023-07-20T08:06:45;1.73;;;1.20;;
25717;SDS011;13574;52.040;5.692;2023-07-20T08:09:10;2.55;;;1.27;;
25717;SDS011;13574;52.040;5.692;2023-07-20T08:11:36;2.30;;;1.30;;
25717;SDS011;13574;52.040;5.692;2023-07-20T08:14:04;1.77;;;1.10;;
25717;SDS011;13574;52.040;5.692;2023-07-20T08:16:30;1.55;;;1.20;;
25717;SDS011;13574;52.040;5.692;2023-07-20T08:18:55;2.88;;;1.20;;
25717;SDS011;13574;52.040;5.692;2023-07-20T08:21:21;2.95;;;1.25;;
25717;SDS011;13574;52.040;5.692;2023-07-20T08:23:47;1.20;;;0.82;;
25717;SDS011;13574;52.040;5.692;2023-07-20T08:26:12;2.60;;;1.13;;
25717;SDS011;13574;52.040;5.692;2023-07-20T08:28:38;1.50;;;1.05;;
25717;SDS011;13574;52.040;5.692;2023-07-20T08:31:05;1.23;;;0.80;;
25717;SDS011;13574;52.040;5.692;2023-07-20T08:33:31;1.95;;;0.85;;
25717;SDS011;13574;52.040;5.692;2023-07-20T08:35:58;3.13;;;0.80;;
25717;SDS011;13574;52.040;5.692;2023-07-20T08:38:26;2.97;;;0.85;;
25717;SDS011;13574;52.040;5.692;2023-07-20T08:40:51;1.45;;;0.65;;
25717;SDS011;13574;52.040;5.692;2023-07-20T08:43:20;0.90;;;0.70;;
25717;SDS011;13574;52.040;5.692;2023-07-20T08:45:49;1.02;;;0.80;;
25717;SDS011;13574;52.040;5.692;2023-07-20T08:48:16;2.00;;;0.88;;
25717;SDS011;13574;52.040;5.692;2023-07-20T08:50:45;1.50;;;0.65;;
25717;SDS011;13574;52.040;5.692;2023-07-20T08:53:12;1.63;;;0.90;;
25717;SDS011;13574;52.040;5.692;2023-07-20T08:55:39;1.30;;;0.80;;
25717;SDS011;13574;52.040;5.692;2023-07-20T08:58:08;1.37;;;0.90;;
25717;SDS011;13574;52.040;5.692;2023-07-20T09:00:36;1.95;;;0.90;;
25717;SDS011;13574;52.040;5.692;2023-07-20T09:03:02;2.22;;;0.90;;
25717;SDS011;13574;52.040;5.692;2023-07-20T09:05:28;0.93;;;0.85;;
25717;SDS011;13574;52.040;5.692;2023-07-20T09:07:55;1.25;;;0.77;;
25717;SDS011;13574;52.040;5.692;2023-07-20T09:10:21;0.75;;;0.70;;
25717;SDS011;13574;52.040;5.692;2023-07-20T09:12:47;1.75;;;0.90;;
25717;SDS011;13574;52.040;5.692;2023-07-20T09:15:14;1.00;;;0.90;;
25717;SDS011;13574;52.040;5.692;2023-07-20T09:17:39;3.05;;;1.10;;
25717;SDS011;13574;52.040;5.692;2023-07-20T09:20:12;4.20;;;1.10;;
25717;SDS011;13574;52.040;5.692;2023-07-20T09:22:39;1.45;;;0.90;;
25717;SDS011;13574;52.040;5.692;2023-07-20T09:25:11;2.08;;;0.95;;
25717;SDS011;13574;52.040;5.692;2023-07-20T09:27:44;1.88;;;1.00;;
25717;SDS011;13574;52.040;5.692;2023-07-20T09:30:11;1.77;;;1.00;;
25717;SDS011;13574;52.040;5.692;2023-07-20T09:32:48;1.60;;;0.98;;
25717;SDS011;13574;52.040;5.692;2023-07-20T09:35:18;3.20;;;1.10;;
25717;SDS011;13574;52.040;5.692;2023-07-20T09:37:54;2.30;;;1.20;;
25717;SDS011;13574;52.040;5.692;2023-07-20T09:40:24;3.22;;;0.90;;
25717;SDS011;13574;52.040;5.692;2023-07-20T09:42:51;2.17;;;1.23;;
25717;SDS011;13574;52.040;5.692;2023-07-20T09:45:19;2.15;;;0.90;;
25717;SDS011;13574;52.040;5.692;2023-07-20T09:47:45;1.40;;;1.02;;
25717;SDS011;13574;52.040;5.692;2023-07-20T09:50:10;1.27;;;0.90;;
25717;SDS011;13574;52.040;5.692;2023-07-20T09:52:40;2.25;;;0.85;;
25717;SDS011;13574;52.040;5.692;2023-07-20T09:55:07;2.47;;;1.00;;
25717;SDS011;13574;52.040;5.692;2023-07-20T09:57:34;2.42;;;1.20;;
25717;SDS011;13574;52.040;5.692;2023-07-20T10:00:01;2.42;;;1.02;;
25717;SDS011;13574;52.040;5.692;2023-07-20T10:02:40;1.02;;;0.88;;
25717;SDS011;13574;52.040;5.692;2023-07-20T10:05:11;2.13;;;1.35;;
25717;SDS011;13574;52.040;5.692;2023-07-20T10:07:40;2.03;;;1.10;;
25717;SDS011;13574;52.040;5.692;2023-07-20T10:10:16;3.28;;;1.05;;
25717;SDS011;13574;52.040;5.692;2023-07-20T10:12:47;1.00;;;0.90;;
25717;SDS011;13574;52.040;5.692;2023-07-20T10:20:22;2.85;;;0.90;;
25717;SDS011;13574;52.040;5.692;2023-07-20T10:22:49;1.27;;;0.80;;
25717;SDS011;13574;52.040;5.692;2023-07-20T10:25:18;1.65;;;0.88;;
25717;SDS011;13574;52.040;5.692;2023-07-20T10:27:47;1.17;;;0.70;;
25717;SDS011;13574;52.040;5.692;2023-07-20T10:30:13;0.80;;;0.60;;
25717;SDS011;13574;52.040;5.692;2023-07-20T10:32:40;1.08;;;0.80;;
25717;SDS011;13574;52.040;5.692;2023-07-20T10:35:14;1.02;;;0.80;;
25717;SDS011;13574;52.040;5.692;2023-07-20T10:37:53;0.70;;;0.70;;
25717;SDS011;13574;52.040;5.692;2023-07-20T10:40:27;2.15;;;0.70;;
25717;SDS011;13574;52.040;5.692;2023-07-20T10:42:57;0.70;;;0.55;;
25717;SDS011;13574;52.040;5.692;2023-07-20T10:45:45;1.45;;;0.60;;
25717;SDS011;13574;52.040;5.692;2023-07-20T10:48:32;0.60;;;0.50;;
25717;SDS011;13574;52.040;5.692;2023-07-20T10:53:47;1.73;;;0.82;;
25717;SDS011;13574;52.040;5.692;2023-07-20T10:56:15;2.65;;;1.23;;
25717;SDS011;13574;52.040;5.692;2023-07-20T10:58:45;1.77;;;0.85;;
25717;SDS011;13574;52.040;5.692;2023-07-20T11:01:15;1.52;;;0.68;;
25717;SDS011;13574;52.040;5.692;2023-07-20T11:03:42;1.25;;;0.70;;
25717;SDS011;13574;52.040;5.692;2023-07-20T11:09:23;2.65;;;0.70;;
25717;SDS011;13574;52.040;5.692;2023-07-20T11:11:43;0.98;;;0.60;;
25717;SDS011;13574;52.040;5.692;2023-07-20T11:14:30;0.68;;;0.60;;
25717;SDS011;13574;52.040;5.692;2023-07-20T11:16:59;0.90;;;0.60;;
25717;SDS011;13574;52.040;5.692;2023-07-20T11:19:37;1.10;;;0.70;;
25717;SDS011;13574;52.040;5.692;2023-07-20T11:22:04;1.77;;;0.85;;
25717;SDS011;13574;52.040;5.692;2023-07-20T11:24:32;0.90;;;0.70;;
25717;SDS011;13574;52.040;5.692;2023-07-20T11:26:58;0.70;;;0.70;;
25717;SDS011;13574;52.040;5.692;2023-07-20T11:29:25;1.08;;;0.57;;
25717;SDS011;13574;52.040;5.692;2023-07-20T11:31:51;1.73;;;0.60;;
25717;SDS011;13574;52.040;5.692;2023-07-20T11:34:17;1.20;;;0.80;;
25717;SDS011;13574;52.040;5.692;2023-07-20T11:36:48;1.20;;;0.70;;
25717;SDS011;13574;52.040;5.692;2023-07-20T11:39:15;1.38;;;0.70;;
25717;SDS011;13574;52.040;5.692;2023-07-20T11:41:47;2.25;;;0.73;;
25717;SDS011;13574;52.040;5.692;2023-07-20T11:44:21;1.65;;;0.80;;
25717;SDS011;13574;52.040;5.692;2023-07-20T11:46:59;0.82;;;0.60;;
25717;SDS011;13574;52.040;5.692;2023-07-20T11:49:28;2.78;;;0.80;;
25717;SDS011;13574;52.040;5.692;2023-07-20T11:51:54;1.40;;;0.80;;
25717;SDS011;13574;52.040;5.692;2023-07-20T11:54:21;0.82;;;0.70;;
25717;SDS011;13574;52.040;5.692;2023-07-20T11:56:48;1.08;;;0.60;;
25717;SDS011;13574;52.040;5.692;2023-07-20T11:59:13;1.15;;;0.73;;
25717;SDS011;13574;52.040;5.692;2023-07-20T12:01:39;1.75;;;0.77;;
25717;SDS011;13574;52.040;5.692;2023-07-20T12:04:04;2.05;;;0.80;;
25717;SDS011;13574;52.040;5.692;2023-07-20T12:06:32;1.20;;;0.70;;
25717;SDS011;13574;52.040;5.692;2023-07-20T12:08:58;1.10;;;0.70;;
25717;SDS011;13574;52.040;5.692;2023-07-20T12:11:34;0.60;;;0.60;;
25717;SDS011;13574;52.040;5.692;2023-07-20T12:14:00;1.13;;;0.80;;
25717;SDS011;13574;52.040;5.692;2023-07-20T12:16:27;1.55;;;0.80;;
25717;SDS011;13574;52.040;5.692;2023-07-20T12:19:04;1.20;;;0.70;;
25717;SDS011;13574;52.040;5.692;2023-07-20T12:21:31;1.30;;;0.70;;
25717;SDS011;13574;52.040;5.692;2023-07-20T12:23:57;1.27;;;0.85;;
25717;SDS011;13574;52.040;5.692;2023-07-20T12:26:23;1.42;;;0.80;;
25717;SDS011;13574;52.040;5.692;2023-07-20T12:28:50;1.35;;;0.68;;
25717;SDS011;13574;52.040;5.692;2023-07-20T12:31:16;2.08;;;0.57;;
25717;SDS011;13574;52.040;5.692;2023-07-20T12:33:42;1.08;;;0.52;;
25717;SDS011;13574;52.040;5.692;2023-07-20T12:36:08;0.80;;;0.60;;
25717;SDS011;13574;52.040;5.692;2023-07-20T12:38:34;1.23;;;0.70;;
25717;SDS011;13574;52.040;5.692;2023-07-20T12:41:00;0.88;;;0.60;;
25717;SDS011;13574;52.040;5.692;2023-07-20T12:43:27;1.10;;;0.63;;
25717;SDS011;13574;52.040;5.692;2023-07-20T12:45:54;0.95;;;0.70;;
25717;SDS011;13574;52.040;5.692;2023-07-20T12:48:21;0.98;;;0.60;;
25717;SDS011;13574;52.040;5.692;2023-07-20T12:50:47;0.93;;;0.70;;
25717;SDS011;13574;52.040;5.692;2023-07-20T12:53:12;4.53;;;0.75;;
25717;SDS011;13574;52.040;5.692;2023-07-20T12:55:38;1.08;;;0.75;;
25717;SDS011;13574;52.040;5.692;2023-07-20T12:58:07;0.80;;;0.70;;
25717;SDS011;13574;52.040;5.692;2023-07-20T13:00:33;1.00;;;0.65;;
25717;SDS011;13574;52.040;5.692;2023-07-20T13:02:59;1.67;;;0.80;;
25717;SDS011;13574;52.040;5.692;2023-07-20T13:05:25;1.00;;;0.82;;
25717;SDS011;13574;52.040;5.692;2023-07-20T13:07:51;1.55;;;0.88;;
25717;SDS011;13574;52.040;5.692;2023-07-20T13:10:17;1.15;;;0.70;;
25717;SDS011;13574;52.040;5.692;2023-07-20T13:12:43;1.30;;;0.80;;
25717;SDS011;13574;52.040;5.692;2023-07-20T13:15:09;3.10;;;0.80;;
25717;SDS011;13574;52.040;5.692;2023-07-20T13:17:36;0.80;;;0.68;;
25717;SDS011;13574;52.040;5.692;2023-07-20T13:20:04;1.25;;;0.63;;
25717;SDS011;13574;52.040;5.692;2023-07-20T13:22:31;2.25;;;0.93;;
25717;SDS011;13574;52.040;5.692;2023-07-20T13:24:57;1.20;;;0.75;;
25717;SDS011;13574;52.040;5.692;2023-07-20T13:27:23;1.33;;;0.95;;
25717;SDS011;13574;52.040;5.692;2023-07-20T13:29:50;1.70;;;0.95;;
25717;SDS011;13574;52.040;5.692;2023-07-20T13:32:17;1.55;;;0.90;;
25717;SDS011;13574;52.040;5.692;2023-07-20T13:34:46;1.30;;;0.90;;
25717;SDS011;13574;52.040;5.692;2023-07-20T13:37:12;2.80;;;0.80;;
25717;SDS011;13574;52.040;5.692;2023-07-20T13:39:37;1.65;;;1.00;;
25717;SDS011;13574;52.040;5.692;2023-07-20T13:42:04;3.50;;;0.90;;
25717;SDS011;13574;52.040;5.692;2023-07-20T13:44:33;1.20;;;0.80;;
25717;SDS011;13574;52.040;5.692;2023-07-20T13:47:00;3.15;;;0.93;;
25717;SDS011;13574;52.040;5.692;2023-07-20T13:49:26;0.98;;;0.80;;
25717;SDS011;13574;52.040;5.692;2023-07-20T13:51:52;1.60;;;0.90;;
25717;SDS011;13574;52.040;5.692;2023-07-20T13:54:17;1.80;;;0.80;;
25717;SDS011;13574;52.040;5.692;2023-07-20T13:56:43;1.25;;;0.90;;
25717;SDS011;13574;52.040;5.692;2023-07-20T13:59:09;1.05;;;0.90;;
25717;SDS011;13574;52.040;5.692;2023-07-20T14:01:34;1.20;;;0.88;;
25717;SDS011;13574;52.040;5.692;2023-07-20T14:04:00;1.15;;;0.80;;
25717;SDS011;13574;52.040;5.692;2023-07-20T14:06:30;2.90;;;0.88;;
25717;SDS011;13574;52.040;5.692;2023-07-20T14:08:57;2.03;;;0.90;;
25717;SDS011;13574;52.040;5.692;2023-07-20T14:11:23;3.45;;;0.75;;
25717;SDS011;13574;52.040;5.692;2023-07-20T14:13:52;1.38;;;0.98;;
25717;SDS011;13574;52.040;5.692;2023-07-20T14:16:19;2.45;;;1.33;;
25717;SDS011;13574;52.040;5.692;2023-07-20T14:18:45;2.10;;;1.10;;
25717;SDS011;13574;52.040;5.692;2023-07-20T14:21:14;1.38;;;0.88;;
25717;SDS011;13574;52.040;5.692;2023-07-20T14:23:40;2.03;;;1.00;;
25717;SDS011;13574;52.040;5.692;2023-07-20T14:26:05;1.42;;;1.17;;
25717;SDS011;13574;52.040;5.692;2023-07-20T14:28:32;1.63;;;1.27;;
25717;SDS011;13574;52.040;5.692;2023-07-20T14:30:58;1.67;;;1.00;;
25717;SDS011;13574;52.040;5.692;2023-07-20T14:33:23;1.73;;;1.02;;
25717;SDS011;13574;52.040;5.692;2023-07-20T14:35:49;1.95;;;1.13;;
25717;SDS011;13574;52.040;5.692;2023-07-20T14:38:15;1.60;;;0.93;;
25717;SDS011;13574;52.040;5.692;2023-07-20T14:40:40;1.48;;;1.20;;
25717;SDS011;13574;52.040;5.692;2023-07-20T14:43:06;1.73;;;1.27;;
25717;SDS011;13574;52.040;5.692;2023-07-20T14:45:32;1.95;;;1.10;;
25717;SDS011;13574;52.040;5.692;2023-07-20T14:47:58;3.33;;;1.77;;
25717;SDS011;13574;52.040;5.692;2023-07-20T14:50:24;1.45;;;1.30;;
25717;SDS011;13574;52.040;5.692;2023-07-20T14:52:49;3.85;;;1.20;;
25717;SDS011;13574;52.040;5.692;2023-07-20T14:55:15;2.25;;;1.10;;
25717;SDS011;13574;52.040;5.692;2023-07-20T14:57:42;1.63;;;1.20;;
25717;SDS011;13574;52.040;5.692;2023-07-20T15:00:08;2.60;;;1.10;;
25717;SDS011;13574;52.040;5.692;2023-07-20T15:02:38;3.00;;;1.90;;
25717;SDS011;13574;52.040;5.692;2023-07-20T15:05:08;1.58;;;1.40;;
25717;SDS011;13574;52.040;5.692;2023-07-20T15:07:34;2.15;;;1.40;;